Time;durP1;ratioP1;P1;durP2;ratioP2;P2;SDS_P1;SDS_P2;PMS_P1;PMS_P2;Temp;Humidity;BMP_temperature;BMP_pressure;BME280_temperature;BME280_humidity;BME280_pressure;Samples;Min_cycle;Max_cycle;Signal;HPM_P1;HPM_P2
2022/12/17 14:58:44;;;;;;;198.04;84.47;;;;;;;;;;4293981;27;20325;-49
2022/12/17 14:59:46;;;;;;;214.98;85.55;;;;;;;;;;2147099;27;20046;-46
2022/12/17 15:00:49;;;;;;;138.40;64.60;;;;;;;;;;2147237;27;20050;-47
2022/12/17 15:01:50;;;;;;;157.45;66.57;;;;;;;;;;2146889;27;20439;-48
2022/12/17 15:02:56;;;;;;;197.82;77.22;;;;;;;;;;2147175;27;20046;-46
2022/12/17 15:03:58;;;;;;;227.70;81.55;;;;;;;;;;2147088;27;20065;-47
2022/12/17 15:05:00;;;;;;;210.02;81.28;;;;;;;;;;2146700;27;20408;-47
2022/12/17 15:06:02;;;;;;;217.65;85.13;;;;;;;;;;2147059;27;20042;-46
2022/12/17 15:07:04;;;;;;;185.30;79.47;;;;;;;;;;2146956;27;20042;-46
2022/12/17 15:08:05;;;;;;;;;;;;;;;;;;2147606;27;20061;-47
2022/12/17 15:09:06;;;;;;;188.48;83.05;;;;;;;;;;2146946;27;19926;-47
2022/12/17 15:10:09;;;;;;;146.23;61.33;;;;;;;;;;2147061;27;20077;-46
2022/12/17 15:11:10;;;;;;;187.80;76.90;;;;;;;;;;2146967;27;20038;-46
2022/12/17 15:12:12;;;;;;;156.75;66.18;;;;;;;;;;2146874;27;20401;-48
2022/12/17 15:13:13;;;;;;;163.20;73.45;;;;;;;;;;2147029;27;20049;-46
2022/12/17 15:14:14;;;;;;;188.03;80.70;;;;;;;;;;2147093;27;20546;-46
2022/12/17 15:15:16;;;;;;;143.32;69.07;;;;;;;;;;2147026;27;20050;-46
2022/12/17 15:16:17;;;;;;;204.13;84.95;;;;;;;;;;2147179;27;20477;-46
2022/12/17 15:17:18;;;;;;;190.00;81.97;;;;;;;;;;2147084;27;20042;-48
2022/12/17 15:18:19;;;;;;;173.85;75.75;;;;;;;;;;2147262;27;20041;-45
2022/12/17 15:19:20;;;;;;;271.13;117.00;;;;;;;;;;2146943;27;20450;-45
2022/12/17 15:20:22;;;;;;;;;;;;;;;;;;2147506;27;20466;-45
2022/12/17 15:21:23;;;;;;;228.77;97.43;;;;;;;;;;2147039;27;19946;-46
2022/12/17 15:22:24;;;;;;;240.82;98.68;;;;;;;;;;2146593;27;20042;-45
2022/12/17 15:23:25;;;;;;;190.25;88.28;;;;;;;;;;2146919;27;20583;-46
2022/12/17 15:24:26;;;;;;;193.07;92.25;;;;;;;;;;2146951;27;20046;-46
2022/12/17 15:25:28;;;;;;;194.17;84.73;;;;;;;;;;2147123;27;20042;-45
2022/12/17 15:26:28;;;;;;;205.57;111.75;;;;;;;;;;2146612;27;20550;-46
2022/12/17 15:27:30;;;;;;;161.73;76.40;;;;;;;;;;2146950;27;20163;-46
2022/12/17 15:28:31;;;;;;;161.48;76.85;;;;;;;;;;2147183;27;20094;-45
2022/12/17 15:29:33;;;;;;;160.30;79.07;;;;;;;;;;2146911;27;20045;-46
2022/12/17 15:30:34;;;;;;;191.75;103.63;;;;;;;;;;2147065;27;20057;-46
2022/12/17 15:31:35;;;;;;;196.95;80.88;;;;;;;;;;2146969;27;20053;-45
2022/12/17 15:32:36;;;;;;;163.40;67.57;;;;;;;;;;2146907;27;20077;-46
2022/12/17 15:33:37;;;;;;;136.63;57.83;;;;;;;;;;2146912;27;20074;-46
2022/12/17 15:34:38;;;;;;;118.13;57.45;;;;;;;;;;2146970;27;20045;-47
2022/12/17 15:35:40;;;;;;;98.53;48.77;;;;;;;;;;2146767;27;20418;-47
2022/12/17 15:36:41;;;;;;;107.82;56.53;;;;;;;;;;2146667;27;20292;-46
2022/12/17 15:37:42;;;;;;;111.25;56.78;;;;;;;;;;2147047;27;20053;-46
2022/12/17 15:38:45;;;;;;;121.53;68.95;;;;;;;;;;2147022;27;20057;-47
2022/12/17 15:39:46;;;;;;;80.15;43.45;;;;;;;;;;2146904;27;20284;-47
2022/12/17 15:40:47;;;;;;;77.63;40.13;;;;;;;;;;2147135;27;20489;-46
2022/12/17 15:43:11;;;;;;;86.45;42.20;;;;;;;;;;2146960;27;20071;-45
2022/12/17 15:44:12;;;;;;;91.45;47.15;;;;;;;;;;2146709;27;20382;-46
2022/12/17 15:45:13;;;;;;;89.07;42.87;;;;;;;;;;2146805;27;20042;-46
2022/12/17 15:46:15;;;;;;;72.15;40.40;;;;;;;;;;2147115;27;20281;-45
2022/12/17 15:47:16;;;;;;;88.70;44.30;;;;;;;;;;2146918;27;20050;-45
2022/12/17 15:48:18;;;;;;;84.32;50.13;;;;;;;;;;2146871;27;20057;-47
2022/12/17 15:49:20;;;;;;;;;;;;;;;;;;2147155;27;20038;-46
2022/12/17 15:50:21;;;;;;;58.58;30.83;;;;;;;;;;2146776;27;19918;-47
2022/12/17 15:51:22;;;;;;;59.00;31.05;;;;;;;;;;2146737;27;20408;-46
2022/12/17 15:52:23;;;;;;;43.22;22.50;;;;;;;;;;2146631;27;20053;-49
2022/12/17 15:53:24;;;;;;;41.78;24.75;;;;;;;;;;2146744;27;20046;-45
2022/12/17 15:54:25;;;;;;;57.17;30.73;;;;;;;;;;2146809;27;20095;-44
2022/12/17 15:55:26;;;;;;;46.67;25.90;;;;;;;;;;2146738;27;20111;-44
2022/12/17 15:56:27;;;;;;;42.88;23.98;;;;;;;;;;2144010;27;20053;-46
2022/12/17 15:57:29;;;;;;;46.50;25.02;;;;;;;;;;2138122;27;20493;-47
2022/12/17 15:58:29;;;;;;;47.60;27.60;;;;;;;;;;2133166;27;20051;-46
2022/12/17 15:59:32;;;;;;;45.85;26.55;;;;;;;;;;2132304;27;20057;-46
2022/12/17 16:00:33;;;;;;;49.38;29.73;;;;;;;;;;2132300;27;20049;-45
2022/12/17 16:01:35;;;;;;;39.00;24.80;;;;;;;;;;2132140;27;20487;-45
2022/12/17 16:02:36;;;;;;;43.80;26.90;;;;;;;;;;2132167;27;20122;-45
2022/12/17 16:03:38;;;;;;;43.33;27.17;;;;;;;;;;2132563;27;20055;-46
2022/12/17 16:04:39;;;;;;;62.13;40.47;;;;;;;;;;2132315;27;20047;-45
2022/12/17 16:05:41;;;;;;;51.97;33.40;;;;;;;;;;2132369;27;20494;-45
2022/12/17 16:06:41;;;;;;;76.47;50.72;;;;;;;;;;2132105;27;20054;-45
2022/12/17 16:07:43;;;;;;;68.60;43.67;;;;;;;;;;2132357;27;20047;-47
2022/12/17 16:08:44;;;;;;;52.88;33.25;;;;;;;;;;2132156;27;20095;-45
2022/12/17 16:09:45;;;;;;;62.95;39.42;;;;;;;;;;2132135;27;20129;-46
2022/12/17 16:10:46;;;;;;;73.88;49.63;;;;;;;;;;2132200;27;20556;-47
2022/12/17 16:11:47;;;;;;;67.55;41.75;;;;;;;;;;2132338;27;20039;-46
2022/12/17 16:12:49;;;;;;;54.97;35.40;;;;;;;;;;2132323;27;20054;-46
2022/12/17 16:13:52;;;;;;;47.03;28.97;;;;;;;;;;2132445;27;20078;-47
2022/12/17 16:14:53;;;;;;;57.75;39.35;;;;;;;;;;2132283;27;20046;-46
2022/12/17 16:15:55;;;;;;;64.23;45.40;;;;;;;;;;2132472;27;20486;-48
2022/12/17 16:17:04;;;;;;;64.85;41.45;;;;;;;;;;2132062;27;20050;-46
2022/12/17 16:18:05;;;;;;;70.57;47.58;;;;;;;;;;2132026;27;20483;-46
2022/12/17 16:19:06;;;;;;;53.85;38.10;;;;;;;;;;2132263;27;20043;-47
2022/12/17 16:20:08;;;;;;;106.97;76.10;;;;;;;;;;2132247;27;20057;-48
2022/12/17 16:21:09;;;;;;;51.03;33.47;;;;;;;;;;2131977;27;20514;-48
2022/12/17 16:22:10;;;;;;;67.05;46.50;;;;;;;;;;2132121;27;20046;-47
2022/12/17 16:23:11;;;;;;;65.00;44.23;;;;;;;;;;2132101;27;20089;-50
2022/12/17 16:24:12;;;;;;;51.15;31.55;;;;;;;;;;2132109;27;20039;-46
2022/12/17 16:25:13;;;;;;;70.93;46.47;;;;;;;;;;2132047;27;20047;-47
2022/12/17 16:26:14;;;;;;;92.32;63.03;;;;;;;;;;2132175;27;20046;-47
2022/12/17 16:27:16;;;;;;;69.25;45.55;;;;;;;;;;2131857;27;20058;-46
2022/12/17 16:28:18;;;;;;;52.78;35.13;;;;;;;;;;2132134;27;20107;-47
2022/12/17 16:29:19;;;;;;;50.50;33.85;;;;;;;;;;2132017;27;20106;-46
2022/12/17 16:30:20;;;;;;;41.33;26.15;;;;;;;;;;2131947;27;20402;-47
2022/12/17 16:31:22;;;;;;;45.45;28.83;;;;;;;;;;2132064;27;20407;-47
2022/12/17 16:32:23;;;;;;;39.97;26.65;;;;;;;;;;2131942;27;20077;-47
2022/12/17 16:33:24;;;;;;;40.33;24.60;;;;;;;;;;2132268;27;20050;-47
2022/12/17 16:34:25;;;;;;;36.53;22.45;;;;;;;;;;2131988;27;20494;-47
2022/12/17 16:35:27;;;;;;;42.03;26.67;;;;;;;;;;2132145;27;20042;-46
2022/12/17 16:36:28;;;;;;;48.70;31.85;;;;;;;;;;2131868;27;20050;-47
2022/12/17 16:37:29;;;;;;;97.50;67.63;;;;;;;;;;2132052;27;20054;-47
2022/12/17 16:38:30;;;;;;;89.93;55.20;;;;;;;;;;2132031;27;20107;-46
2022/12/17 16:39:32;;;;;;;112.35;84.15;;;;;;;;;;2131884;27;20443;-46
2022/12/17 16:40:32;;;;;;;176.07;132.75;;;;;;;;;;2131911;27;20070;-48
2022/12/17 16:41:34;;;;;;;50.88;35.33;;;;;;;;;;2132089;27;20050;-47
2022/12/17 16:42:35;;;;;;;51.95;33.00;;;;;;;;;;2132089;27;20058;-48
2022/12/17 16:43:36;;;;;;;65.53;45.60;;;;;;;;;;2131916;27;20368;-46
2022/12/17 16:44:37;;;;;;;134.18;94.80;;;;;;;;;;2131939;27;20054;-47
2022/12/17 16:45:45;;;;;;;161.32;101.82;;;;;;;;;;2131964;27;20054;-47
2022/12/17 16:46:47;;;;;;;89.13;54.40;;;;;;;;;;2131935;27;20042;-47
2022/12/17 16:47:49;;;;;;;;;;;;;;;;;;2132377;27;20077;-47
2022/12/17 16:48:50;;;;;;;102.63;67.50;;;;;;;;;;2132122;27;19919;-48
2022/12/17 16:49:51;;;;;;;58.80;41.07;;;;;;;;;;2132150;27;20444;-48
2022/12/17 16:50:52;;;;;;;51.65;36.80;;;;;;;;;;2131918;27;20619;-50
2022/12/17 16:51:54;;;;;;;67.83;48.53;;;;;;;;;;2131800;27;20087;-47
2022/12/17 16:52:55;;;;;;;42.03;33.20;;;;;;;;;;2135943;27;20129;-48
2022/12/17 16:53:56;;;;;;;40.30;30.58;;;;;;;;;;2140611;27;20054;-46
2022/12/17 16:54:57;;;;;;;35.92;25.00;;;;;;;;;;2140603;27;20038;-47
2022/12/17 16:55:58;;;;;;;83.32;65.18;;;;;;;;;;2140502;27;20050;-48
2022/12/17 16:56:59;;;;;;;74.68;59.20;;;;;;;;;;2140405;27;20046;-48
2022/12/17 16:58:00;;;;;;;51.80;40.72;;;;;;;;;;2140563;27;20046;-47
2022/12/17 16:59:02;;;;;;;61.05;43.92;;;;;;;;;;2140535;27;20119;-47
2022/12/17 17:00:03;;;;;;;42.17;28.80;;;;;;;;;;2140481;27;20087;-47
2022/12/17 17:01:04;;;;;;;59.60;42.05;;;;;;;;;;2140507;27;20099;-48
2022/12/17 17:02:10;;;;;;;56.83;40.40;;;;;;;;;;2140597;27;20046;-48
2022/12/17 17:03:12;;;;;;;56.00;42.28;;;;;;;;;;2140970;27;20072;-48
2022/12/17 17:04:14;;;;;;;77.07;58.97;;;;;;;;;;2140556;27;20052;-47
2022/12/17 17:05:15;;;;;;;51.63;38.15;;;;;;;;;;2140351;27;20043;-51
2022/12/17 17:06:17;;;;;;;65.10;50.83;;;;;;;;;;2140711;27;20124;-47
2022/12/17 17:07:18;;;;;;;53.65;42.42;;;;;;;;;;2140616;27;20328;-48
2022/12/17 17:08:19;;;;;;;44.97;34.22;;;;;;;;;;2140444;27;20102;-47
2022/12/17 17:09:20;;;;;;;47.83;33.85;;;;;;;;;;2140528;27;20547;-48
2022/12/17 17:10:21;;;;;;;47.67;36.08;;;;;;;;;;2139341;27;20038;-46
2022/12/17 17:11:23;;;;;;;47.67;38.03;;;;;;;;;;2140693;27;20102;-49
2022/12/17 17:12:25;;;;;;;36.63;27.90;;;;;;;;;;2140224;27;20506;-47
2022/12/17 17:13:26;;;;;;;42.25;31.10;;;;;;;;;;2140395;27;20044;-47
2022/12/17 17:14:28;;;;;;;34.60;25.42;;;;;;;;;;2140382;27;20050;-47
2022/12/17 17:15:29;;;;;;;34.38;24.13;;;;;;;;;;2140720;27;20038;-48
2022/12/17 17:16:30;;;;;;;38.63;28.30;;;;;;;;;;2140581;27;20038;-47
2022/12/17 17:17:32;;;;;;;32.55;23.85;;;;;;;;;;2140503;27;20052;-48
2022/12/17 17:18:53;;;;;;;22.70;14.00;;;;;;;;;;2140381;27;20046;-49
2022/12/17 17:19:54;;;;;;;25.02;19.65;;;;;;;;;;2140398;27;20478;-49
2022/12/17 17:21:10;;;;;;;33.97;25.40;;;;;;;;;;2140252;27;20425;-48
2022/12/17 17:22:12;;;;;;;31.38;21.17;;;;;;;;;;2140373;27;20050;-47
2022/12/17 17:23:12;;;;;;;26.98;20.17;;;;;;;;;;2140607;27;20046;-49
2022/12/17 17:24:15;;;;;;;25.92;18.27;;;;;;;;;;2140759;27;20375;-50
2022/12/17 17:25:22;;;;;;;27.63;19.83;;;;;;;;;;2140378;27;20056;-48
2022/12/17 17:26:23;;;;;;;22.63;15.13;;;;;;;;;;2140530;27;20391;-47
2022/12/17 17:27:24;;;;;;;20.00;14.45;;;;;;;;;;2140104;27;20050;-46
2022/12/17 17:28:25;;;;;;;19.15;14.02;;;;;;;;;;2140279;27;20106;-49
2022/12/17 17:29:26;;;;;;;20.45;13.63;;;;;;;;;;2140492;27;20050;-48
2022/12/17 17:30:27;;;;;;;19.25;13.13;;;;;;;;;;2140282;27;20034;-47
2022/12/17 17:31:28;;;;;;;21.00;12.20;;;;;;;;;;2140392;27;20438;-48
2022/12/17 17:32:50;;;;;;;17.33;9.80;;;;;;;;;;2140268;27;20061;-47
2022/12/17 17:33:51;;;;;;;;;;;;;;;;;;2140844;27;20566;-47
2022/12/17 17:34:52;;;;;;;11.40;7.65;;;;;;;;;;2140223;27;19933;-47
2022/12/17 17:35:53;;;;;;;16.50;10.68;;;;;;;;;;2140281;27;20534;-48
2022/12/17 17:36:55;;;;;;;14.38;9.80;;;;;;;;;;2140385;27;20127;-46
2022/12/17 17:37:55;;;;;;;16.98;10.93;;;;;;;;;;2140810;27;20054;-46
2022/12/17 17:38:57;;;;;;;13.27;9.43;;;;;;;;;;2140220;27;20046;-46
2022/12/17 17:39:58;;;;;;;;;;;;;;;;;;2140708;27;20057;-45
2022/12/17 17:41:00;;;;;;;12.30;7.75;;;;;;;;;;2140192;27;19919;-45
2022/12/17 17:42:01;;;;;;;14.82;9.10;;;;;;;;;;2140069;27;20098;-47
2022/12/17 17:43:02;;;;;;;15.75;10.25;;;;;;;;;;2140200;27;20402;-46
2022/12/17 17:44:04;;;;;;;15.10;10.27;;;;;;;;;;2140243;27;20042;-47
2022/12/17 17:45:07;;;;;;;17.70;9.82;;;;;;;;;;2140272;27;20053;-46
2022/12/17 17:46:09;;;;;;;14.10;8.00;;;;;;;;;;2140242;27;20212;-45
2022/12/17 17:47:11;;;;;;;16.02;9.52;;;;;;;;;;2140099;27;20119;-48
2022/12/17 17:48:12;;;;;;;12.90;8.80;;;;;;;;;;2140235;27;20039;-51
2022/12/17 17:49:13;;;;;;;13.63;8.25;;;;;;;;;;2135224;27;20042;-48
2022/12/17 17:50:14;;;;;;;11.02;7.00;;;;;;;;;;2131760;27;20043;-45
2022/12/17 17:51:17;;;;;;;10.23;6.57;;;;;;;;;;2131689;27;20043;-50
2022/12/17 17:52:18;;;;;;;9.07;6.95;;;;;;;;;;2131480;27;20042;-46
2022/12/17 17:53:19;;;;;;;9.93;6.25;;;;;;;;;;2131467;27;20034;-45
2022/12/17 17:54:20;;;;;;;10.07;7.33;;;;;;;;;;2131502;27;20138;-47
2022/12/17 17:55:21;;;;;;;7.68;5.55;;;;;;;;;;2131420;27;20070;-47
2022/12/17 17:56:23;;;;;;;10.75;7.60;;;;;;;;;;2131256;27;20407;-45
2022/12/17 17:57:25;;;;;;;10.55;7.25;;;;;;;;;;2131523;27;20047;-46
2022/12/17 17:58:25;;;;;;;11.15;7.18;;;;;;;;;;2131416;27;20050;-48
2022/12/17 17:59:27;;;;;;;9.23;5.80;;;;;;;;;;2131618;27;20129;-47
2022/12/17 18:00:36;;;;;;;8.98;5.82;;;;;;;;;;2131552;27;20043;-46
2022/12/17 18:01:38;;;;;;;8.73;6.30;;;;;;;;;;2131211;27;20452;-47
2022/12/17 18:02:39;;;;;;;9.20;5.75;;;;;;;;;;2132066;27;20042;-47
2022/12/17 18:03:41;;;;;;;12.90;8.75;;;;;;;;;;2131570;27;20079;-49
2022/12/17 18:04:42;;;;;;;49.60;29.63;;;;;;;;;;2131649;27;20066;-51
2022/12/17 18:05:43;;;;;;;130.60;69.00;;;;;;;;;;2131799;27;20046;-46
2022/12/17 18:06:45;;;;;;;49.00;27.67;;;;;;;;;;2131310;27;20100;-48
2022/12/17 18:08:06;;;;;;;58.60;29.85;;;;;;;;;;2131749;27;20047;-45
2022/12/17 18:09:07;;;;;;;59.20;29.08;;;;;;;;;;2131562;27;20088;-48
2022/12/17 18:10:09;;;;;;;101.90;42.72;;;;;;;;;;2131442;27;20456;-47
2022/12/17 18:11:14;;;;;;;152.23;65.28;;;;;;;;;;2131360;27;20047;-48
2022/12/17 18:13:54;;;;;;;73.80;35.55;;;;;;;;;;2131389;27;20051;-48
2022/12/17 18:14:55;;;;;;;96.40;47.05;;;;;;;;;;2131390;27;20546;-48
2022/12/17 18:16:16;;;;;;;153.32;64.47;;;;;;;;;;2131319;27;20043;-47
2022/12/17 18:17:17;;;;;;;91.97;41.78;;;;;;;;;;2131220;27;20088;-47
2022/12/17 18:18:18;;;;;;;53.70;24.95;;;;;;;;;;2131308;27;20141;-47
2022/12/17 18:19:21;;;;;;;84.18;47.22;;;;;;;;;;2131379;27;20420;-48
2022/12/17 18:20:22;;;;;;;18.85;12.18;;;;;;;;;;2131253;27;20038;-48
2022/12/17 18:21:23;;;;;;;19.73;11.57;;;;;;;;;;2131189;27;20040;-47
2022/12/17 18:22:24;;;;;;;16.98;10.80;;;;;;;;;;2131253;27;20091;-48
2022/12/17 18:23:25;;;;;;;22.13;14.68;;;;;;;;;;2131416;27;20047;-49
2022/12/17 18:24:26;;;;;;;22.90;15.30;;;;;;;;;;2131374;27;20047;-48
2022/12/17 18:25:27;;;;;;;16.73;11.90;;;;;;;;;;2131457;27;20049;-49
2022/12/17 18:26:41;;;;;;;15.23;11.10;;;;;;;;;;2131311;27;20047;-48
2022/12/17 18:27:42;;;;;;;33.10;29.23;;;;;;;;;;2131789;27;20058;-47
2022/12/17 18:28:43;;;;;;;62.87;56.00;;;;;;;;;;2131308;27;20051;-49
2022/12/17 18:29:44;;;;;;;45.00;37.50;;;;;;;;;;2131379;27;20282;-47
2022/12/17 18:30:45;;;;;;;55.08;49.22;;;;;;;;;;2131345;27;20047;-47
2022/12/17 18:31:47;;;;;;;22.00;18.37;;;;;;;;;;2131305;27;20047;-49
2022/12/17 18:32:54;;;;;;;12.07;10.85;;;;;;;;;;2131683;27;20066;-45
2022/12/17 18:33:56;;;;;;;24.48;21.83;;;;;;;;;;2131484;27;20043;-47
2022/12/17 18:34:58;;;;;;;17.25;15.48;;;;;;;;;;2131421;27;20050;-48
2022/12/17 18:35:59;;;;;;;;;;;;;;;;;;2131656;27;20444;-48
2022/12/17 18:37:00;;;;;;;15.55;12.65;;;;;;;;;;2131179;27;19919;-48
2022/12/17 18:38:01;;;;;;;20.77;18.70;;;;;;;;;;2131410;27;20046;-48
2022/12/17 18:39:04;;;;;;;13.68;12.13;;;;;;;;;;2131363;27;20046;-48
2022/12/17 18:40:06;;;;;;;20.08;18.20;;;;;;;;;;2131202;27;20401;-49
2022/12/17 18:43:21;;;;;;;20.98;17.33;;;;;;;;;;2131307;27;20043;-47
2022/12/17 18:43:48;;;;;;;20.40;17.10;;;;;;;;;;2131385;27;20047;-47
2022/12/17 18:44:49;;;;;;;13.25;10.90;;;;;;;;;;2131220;27;20043;-47
2022/12/17 18:45:51;;;;;;;17.52;12.20;;;;;;;;;;2131295;27;20051;-48
2022/12/17 18:46:52;;;;;;;11.25;9.43;;;;;;;;;;2130925;27;20341;-48
2022/12/17 18:47:53;;;;;;;8.30;6.90;;;;;;;;;;2131487;27;20035;-47
2022/12/17 18:48:55;;;;;;;10.88;8.80;;;;;;;;;;2139469;27;20061;-47
2022/12/17 18:49:57;;;;;;;5.88;4.80;;;;;;;;;;2139529;27;20046;-48
2022/12/17 18:51:03;;;;;;;7.57;5.95;;;;;;;;;;2139506;27;20057;-46
2022/12/17 18:52:04;;;;;;;7.95;7.15;;;;;;;;;;2139499;27;20090;-47
2022/12/17 18:53:05;;;;;;;6.70;5.45;;;;;;;;;;2139433;27;20053;-47
2022/12/17 18:54:07;;;;;;;5.80;4.40;;;;;;;;;;2139383;27;20038;-47
2022/12/17 18:55:10;;;;;;;7.07;6.35;;;;;;;;;;2139513;27;20047;-47
2022/12/17 18:56:12;;;;;;;4.88;4.38;;;;;;;;;;2138862;27;20462;-48
2022/12/17 18:57:13;;;;;;;7.65;6.95;;;;;;;;;;2131252;27;20039;-47
2022/12/17 18:58:14;;;;;;;7.57;5.78;;;;;;;;;;2131264;27;20047;-46
2022/12/17 18:59:17;;;;;;;3.70;3.30;;;;;;;;;;2131399;27;20387;-48
2022/12/17 19:00:18;;;;;;;5.03;4.07;;;;;;;;;;2131012;27;20495;-47
2022/12/17 19:01:20;;;;;;;5.23;4.53;;;;;;;;;;2131243;27;20050;-47
2022/12/17 19:02:21;;;;;;;5.72;5.05;;;;;;;;;;2130958;27;20440;-47
2022/12/17 19:03:22;;;;;;;3.28;2.85;;;;;;;;;;2131271;27;20427;-47
2022/12/17 19:04:24;;;;;;;3.95;3.30;;;;;;;;;;2131047;27;20513;-47
2022/12/17 19:05:25;;;;;;;4.60;3.88;;;;;;;;;;2131027;27;20054;-47
2022/12/17 19:06:27;;;;;;;4.53;3.90;;;;;;;;;;2131268;27;20050;-46
2022/12/17 19:07:28;;;;;;;4.13;3.53;;;;;;;;;;2130981;27;20534;-48
2022/12/17 19:08:29;;;;;;;5.97;5.38;;;;;;;;;;2131256;27;20055;-46
2022/12/17 19:09:33;;;;;;;3.70;2.93;;;;;;;;;;2131117;27;20050;-47
2022/12/17 19:10:34;;;;;;;5.35;4.47;;;;;;;;;;2131149;27;20050;-47
2022/12/17 19:11:35;;;;;;;12.63;8.80;;;;;;;;;;2131039;27;20051;-47
2022/12/17 19:12:44;;;;;;;9.20;6.75;;;;;;;;;;2131233;27;20095;-47
2022/12/17 19:13:45;;;;;;;19.00;12.65;;;;;;;;;;2131039;27;20418;-46
2022/12/17 19:14:46;;;;;;;37.97;27.05;;;;;;;;;;2131260;27;20046;-46
2022/12/17 19:15:47;;;;;;;26.90;17.23;;;;;;;;;;2131085;27;20047;-47
2022/12/17 19:16:49;;;;;;;81.22;50.28;;;;;;;;;;2131014;27;20490;-48
2022/12/17 19:17:50;;;;;;;;;;;;;;;;;;2131566;27;20046;-46
2022/12/17 19:18:52;;;;;;;30.30;20.25;;;;;;;;;;2131036;27;19919;-47
2022/12/17 19:19:53;;;;;;;32.80;24.10;;;;;;;;;;2131055;27;20054;-46
2022/12/17 21:51:49;;;;;;;14.54;10.12;;;;;;;;;;4259193;27;20675;-46
2022/12/17 21:52:50;;;;;;;;;;;;;;;;;;2121716;28;20480;-46
2022/12/17 21:53:51;;;;;;;11.70;7.50;;;;;;;;;;2121338;28;19927;-45
2022/12/17 21:54:53;;;;;;;13.75;8.82;;;;;;;;;;2119037;28;20061;-45
2022/12/17 21:56:00;;;;;;;16.27;11.32;;;;;;;;;;2112904;28;20152;-46
2022/12/17 21:57:02;;;;;;;16.20;10.18;;;;;;;;;;2112822;28;20059;-46
2022/12/17 21:58:03;;;;;;;17.65;11.82;;;;;;;;;;2112726;28;20389;-46
2022/12/17 21:59:04;;;;;;;16.67;10.50;;;;;;;;;;2112605;28;20056;-45
2022/12/17 22:00:06;;;;;;;16.50;10.35;;;;;;;;;;2112708;28;20055;-46
2022/12/17 22:01:08;;;;;;;17.02;11.43;;;;;;;;;;2112897;28;20097;-46
2022/12/17 22:02:17;;;;;;;18.55;11.32;;;;;;;;;;2112728;28;20056;-46
2022/12/17 22:03:19;;;;;;;17.98;11.80;;;;;;;;;;2112733;28;20471;-46
2022/12/17 22:04:19;;;;;;;18.70;12.65;;;;;;;;;;2112721;28;20040;-46
2022/12/17 22:05:21;;;;;;;16.87;9.93;;;;;;;;;;2112710;28;20093;-46
2022/12/17 22:06:23;;;;;;;20.02;13.23;;;;;;;;;;2112700;28;20276;-47
2022/12/17 22:07:29;;;;;;;16.75;10.85;;;;;;;;;;2112700;28;20476;-45
2022/12/17 22:08:35;;;;;;;17.67;11.02;;;;;;;;;;2112833;28;20063;-47
2022/12/17 22:09:36;;;;;;;;;;;;;;;;;;2113231;28;20059;-46
2022/12/17 22:10:55;;;;;;;19.65;11.40;;;;;;;;;;2112622;28;20283;-46
2022/12/17 22:14:01;;;;;;;23.00;12.50;;;;;;;;;;2112837;28;20137;-48
2022/12/17 22:14:37;;;;;;;20.77;11.50;;;;;;;;;;2112797;28;20048;-46
2022/12/17 22:15:39;;;;;;;21.13;12.00;;;;;;;;;;2112390;28;20039;-46
2022/12/17 22:16:48;;;;;;;22.08;12.15;;;;;;;;;;2112766;28;20040;-46
2022/12/17 22:17:51;;;;;;;20.58;14.13;;;;;;;;;;2112567;28;20058;-46
2022/12/17 22:18:53;;;;;;;20.83;12.18;;;;;;;;;;2112644;28;20047;-47
2022/12/17 22:19:54;;;;;;;19.70;12.95;;;;;;;;;;2112621;28;20048;-47
2022/12/17 22:20:55;;;;;;;18.55;10.55;;;;;;;;;;2112849;28;20081;-46
2022/12/17 22:21:56;;;;;;;23.92;14.27;;;;;;;;;;2112555;28;20058;-46
2022/12/17 22:22:58;;;;;;;;;;;;;;;;;;2113031;28;20052;-46
2022/12/17 22:24:00;;;;;;;22.30;11.85;;;;;;;;;;2112585;28;20154;-46
2022/12/17 22:25:01;;;;;;;22.42;12.40;;;;;;;;;;2112619;28;20052;-47
2022/12/17 22:26:10;;;;;;;24.52;14.73;;;;;;;;;;2112677;28;20043;-46
2022/12/17 22:27:11;;;;;;;21.63;12.68;;;;;;;;;;2112606;28;20447;-46
2022/12/17 22:28:12;;;;;;;23.92;14.38;;;;;;;;;;2112771;28;20076;-47
2022/12/17 22:32:58;;;;;;;22.25;12.85;;;;;;;;;;2112727;28;20052;-46
2022/12/17 22:33:21;;;;;;;22.38;13.02;;;;;;;;;;2086595;28;20049;-48
2022/12/17 22:34:42;;;;;;;22.45;12.50;;;;;;;;;;2112414;28;20047;-47
2022/12/17 22:36:03;;;;;;;22.67;12.13;;;;;;;;;;2112628;28;20067;-47
2022/12/17 22:37:24;;;;;;;20.08;11.07;;;;;;;;;;2112535;28;20113;-48
2022/12/17 22:38:45;;;;;;;20.75;12.93;;;;;;;;;;2112787;28;20035;-47
2022/12/17 22:40:08;;;;;;;20.05;11.80;;;;;;;;;;2112239;28;20051;-45
2022/12/17 22:44:48;;;;;;;17.95;9.07;;;;;;;;;;2112402;28;20044;-47
2022/12/17 22:45:57;;;;;;;20.65;12.13;;;;;;;;;;2112522;28;20290;-44
2022/12/17 22:46:58;;;;;;;20.48;11.60;;;;;;;;;;2112040;28;20048;-47
2022/12/17 22:47:59;;;;;;;21.90;13.38;;;;;;;;;;2111991;28;20446;-47
2022/12/17 22:49:00;;;;;;;19.85;12.88;;;;;;;;;;2112168;28;20048;-45
2022/12/17 22:50:01;;;;;;;22.08;14.32;;;;;;;;;;2111523;28;20047;-45
2022/12/17 22:51:07;;;;;;;20.83;13.40;;;;;;;;;;2110799;28;20439;-48
2022/12/17 22:52:12;;;;;;;19.15;11.43;;;;;;;;;;2098525;28;20045;-45
2022/12/17 22:53:15;;;;;;;21.33;14.63;;;;;;;;;;2099964;28;20386;-47
2022/12/17 22:54:17;;;;;;;21.38;12.38;;;;;;;;;;2106961;28;20044;-46
2022/12/17 22:55:19;;;;;;;24.83;14.52;;;;;;;;;;2106785;28;20044;-44
2022/12/17 22:56:20;;;;;;;22.02;13.10;;;;;;;;;;2106740;28;20443;-45
2022/12/17 22:57:41;;;;;;;25.05;12.88;;;;;;;;;;2106665;28;20063;-49
2022/12/17 22:58:43;;;;;;;25.92;17.20;;;;;;;;;;2106832;28;20051;-47
2022/12/17 22:59:44;;;;;;;28.13;15.95;;;;;;;;;;2106845;28;20055;-44
2022/12/17 23:00:45;;;;;;;26.90;15.50;;;;;;;;;;2106799;28;20044;-47
2022/12/17 23:01:46;;;;;;;26.80;17.00;;;;;;;;;;2106704;28;20512;-44
2022/12/17 23:02:49;;;;;;;23.88;12.25;;;;;;;;;;2106787;28;20052;-48
2022/12/17 23:03:53;;;;;;;26.63;15.65;;;;;;;;;;2106797;28;20455;-48
2022/12/17 23:04:54;;;;;;;22.83;11.77;;;;;;;;;;2106620;28;20059;-45
2022/12/17 23:06:04;;;;;;;21.40;10.83;;;;;;;;;;2106894;28;20552;-45
